sensor_id;sensor_type;location;lat;lon;timestamp;temperature;humidity
56162;DHT22;42045;52.986;6.014;2023-05-29T00:01:45;8.30;99.90
56162;DHT22;42045;52.986;6.014;2023-05-29T00:04:11;8.30;99.90
56162;DHT22;42045;52.986;6.014;2023-05-29T00:06:37;8.20;99.90
56162;DHT22;42045;52.986;6.014;2023-05-29T00:09:03;8.20;99.90
56162;DHT22;42045;52.986;6.014;2023-05-29T00:11:29;8.20;99.90
56162;DHT22;42045;52.986;6.014;2023-05-29T00:13:55;8.20;99.90
56162;DHT22;42045;52.986;6.014;2023-05-29T00:16:22;8.30;99.90
56162;DHT22;42045;52.986;6.014;2023-05-29T00:18:49;8.20;99.90
56162;DHT22;42045;52.986;6.014;2023-05-29T00:21:15;8.20;99.90
56162;DHT22;42045;52.986;6.014;2023-05-29T00:23:41;8.20;99.90
56162;DHT22;42045;52.986;6.014;2023-05-29T00:26:07;8.20;99.90
56162;DHT22;42045;52.986;6.014;2023-05-29T00:28:34;8.20;99.90
56162;DHT22;42045;52.986;6.014;2023-05-29T00:31:01;8.10;99.90
56162;DHT22;42045;52.986;6.014;2023-05-29T00:33:28;8.10;99.90
56162;DHT22;42045;52.986;6.014;2023-05-29T00:35:53;8.10;99.90
56162;DHT22;42045;52.986;6.014;2023-05-29T00:38:19;8.00;99.90
56162;DHT22;42045;52.986;6.014;2023-05-29T00:40:45;8.00;99.90
56162;DHT22;42045;52.986;6.014;2023-05-29T00:43:11;8.00;99.90
56162;DHT22;42045;52.986;6.014;2023-05-29T00:45:36;8.00;99.90
56162;DHT22;42045;52.986;6.014;2023-05-29T00:48:05;8.00;99.90
56162;DHT22;42045;52.986;6.014;2023-05-29T00:50:32;8.00;99.90
56162;DHT22;42045;52.986;6.014;2023-05-29T00:53:01;8.00;99.90
56162;DHT22;42045;52.986;6.014;2023-05-29T00:55:29;7.90;99.90
56162;DHT22;42045;52.986;6.014;2023-05-29T00:57:54;7.90;99.90
56162;DHT22;42045;52.986;6.014;2023-05-29T01:00:21;7.90;99.90
56162;DHT22;42045;52.986;6.014;2023-05-29T01:02:46;8.00;99.90
56162;DHT22;42045;52.986;6.014;2023-05-29T01:05:13;8.00;99.90
56162;DHT22;42045;52.986;6.014;2023-05-29T01:07:43;8.00;99.90
56162;DHT22;42045;52.986;6.014;2023-05-29T01:10:10;8.00;99.90
56162;DHT22;42045;52.986;6.014;2023-05-29T01:20:42;7.70;99.90
56162;DHT22;42045;52.986;6.014;2023-05-29T01:26:31;7.60;99.90
56162;DHT22;42045;52.986;6.014;2023-05-29T01:29:02;7.60;99.90
56162;DHT22;42045;52.986;6.014;2023-05-29T01:31:30;7.60;99.90
56162;DHT22;42045;52.986;6.014;2023-05-29T01:33:58;7.70;99.90
56162;DHT22;42045;52.986;6.014;2023-05-29T01:36:25;7.70;99.90
56162;DHT22;42045;52.986;6.014;2023-05-29T01:38:53;7.70;99.90
56162;DHT22;42045;52.986;6.014;2023-05-29T01:41:19;7.70;99.90
56162;DHT22;42045;52.986;6.014;2023-05-29T01:43:47;7.70;99.90
56162;DHT22;42045;52.986;6.014;2023-05-29T01:46:14;7.70;99.90
56162;DHT22;42045;52.986;6.014;2023-05-29T01:48:44;7.70;99.90
56162;DHT22;42045;52.986;6.014;2023-05-29T01:51:11;7.60;99.90
56162;DHT22;42045;52.986;6.014;2023-05-29T01:53:41;7.60;99.90
56162;DHT22;42045;52.986;6.014;2023-05-29T01:56:07;7.60;99.90
56162;DHT22;42045;52.986;6.014;2023-05-29T01:58:34;7.60;99.90
56162;DHT22;42045;52.986;6.014;2023-05-29T02:01:01;7.60;99.90
56162;DHT22;42045;52.986;6.014;2023-05-29T02:03:29;7.60;99.90
56162;DHT22;42045;52.986;6.014;2023-05-29T02:05:56;7.60;99.90
56162;DHT22;42045;52.986;6.014;2023-05-29T02:08:22;7.60;99.90
56162;DHT22;42045;52.986;6.014;2023-05-29T02:10:48;7.60;99.90
56162;DHT22;42045;52.986;6.014;2023-05-29T02:13:13;7.60;99.90
56162;DHT22;42045;52.986;6.014;2023-05-29T02:15:39;7.70;99.90
56162;DHT22;42045;52.986;6.014;2023-05-29T02:18:05;7.70;99.90
56162;DHT22;42045;52.986;6.014;2023-05-29T02:20:30;7.70;99.90
56162;DHT22;42045;52.986;6.014;2023-05-29T02:22:56;7.60;99.90
56162;DHT22;42045;52.986;6.014;2023-05-29T02:25:22;7.60;99.90
56162;DHT22;42045;52.986;6.014;2023-05-29T02:27:47;7.60;99.90
56162;DHT22;42045;52.986;6.014;2023-05-29T02:30:13;7.60;99.90
56162;DHT22;42045;52.986;6.014;2023-05-29T02:32:39;7.60;99.90
56162;DHT22;42045;52.986;6.014;2023-05-29T02:35:05;7.50;99.90
56162;DHT22;42045;52.986;6.014;2023-05-29T02:37:32;7.50;99.90
56162;DHT22;42045;52.986;6.014;2023-05-29T02:39:58;7.50;99.90
56162;DHT22;42045;52.986;6.014;2023-05-29T02:42:23;7.40;99.90
56162;DHT22;42045;52.986;6.014;2023-05-29T02:44:49;7.40;99.90
56162;DHT22;42045;52.986;6.014;2023-05-29T02:47:15;7.40;99.90
56162;DHT22;42045;52.986;6.014;2023-05-29T02:49:41;7.40;99.90
56162;DHT22;42045;52.986;6.014;2023-05-29T02:52:07;7.40;99.90
56162;DHT22;42045;52.986;6.014;2023-05-29T02:54:32;7.40;99.90
56162;DHT22;42045;52.986;6.014;2023-05-29T02:56:58;7.40;99.90
56162;DHT22;42045;52.986;6.014;2023-05-29T02:59:24;7.40;99.90
56162;DHT22;42045;52.986;6.014;2023-05-29T03:01:50;7.50;99.90
56162;DHT22;42045;52.986;6.014;2023-05-29T03:04:17;7.40;99.90
56162;DHT22;42045;52.986;6.014;2023-05-29T03:06:42;7.40;99.90
56162;DHT22;42045;52.986;6.014;2023-05-29T03:09:08;7.40;99.90
56162;DHT22;42045;52.986;6.014;2023-05-29T03:11:34;7.30;99.90
56162;DHT22;42045;52.986;6.014;2023-05-29T03:14:01;7.30;99.90
56162;DHT22;42045;52.986;6.014;2023-05-29T03:16:27;7.30;99.90
56162;DHT22;42045;52.986;6.014;2023-05-29T03:18:55;7.30;99.90
56162;DHT22;42045;52.986;6.014;2023-05-29T03:21:20;7.30;99.90
56162;DHT22;42045;52.986;6.014;2023-05-29T03:23:46;7.30;99.90
56162;DHT22;42045;52.986;6.014;2023-05-29T03:26:12;7.30;99.90
56162;DHT22;42045;52.986;6.014;2023-05-29T03:28:39;7.30;99.90
56162;DHT22;42045;52.986;6.014;2023-05-29T03:31:05;7.30;99.90
56162;DHT22;42045;52.986;6.014;2023-05-29T03:33:30;7.30;99.90
56162;DHT22;42045;52.986;6.014;2023-05-29T03:35:56;7.30;99.90
56162;DHT22;42045;52.986;6.014;2023-05-29T03:38:22;7.40;99.90
56162;DHT22;42045;52.986;6.014;2023-05-29T03:40:48;7.40;99.90
56162;DHT22;42045;52.986;6.014;2023-05-29T03:43:14;7.40;99.90
56162;DHT22;42045;52.986;6.014;2023-05-29T03:45:40;7.40;99.90
56162;DHT22;42045;52.986;6.014;2023-05-29T03:48:05;7.40;99.90
56162;DHT22;42045;52.986;6.014;2023-05-29T03:50:31;7.50;99.90
56162;DHT22;42045;52.986;6.014;2023-05-29T03:52:57;7.50;99.90
56162;DHT22;42045;52.986;6.014;2023-05-29T03:55:22;7.60;99.90
56162;DHT22;42045;52.986;6.014;2023-05-29T03:57:48;7.50;99.90
56162;DHT22;42045;52.986;6.014;2023-05-29T04:00:14;7.50;99.90
56162;DHT22;42045;52.986;6.014;2023-05-29T04:02:40;7.50;99.90
56162;DHT22;42045;52.986;6.014;2023-05-29T04:05:07;7.60;99.90
56162;DHT22;42045;52.986;6.014;2023-05-29T04:07:36;7.70;99.90
56162;DHT22;42045;52.986;6.014;2023-05-29T04:10:06;7.70;99.90
56162;DHT22;42045;52.986;6.014;2023-05-29T04:12:32;7.80;99.90
56162;DHT22;42045;52.986;6.014;2023-05-29T04:14:59;7.90;99.90
56162;DHT22;42045;52.986;6.014;2023-05-29T04:17:24;8.00;99.90
56162;DHT22;42045;52.986;6.014;2023-05-29T04:19:50;8.10;99.90
56162;DHT22;42045;52.986;6.014;2023-05-29T04:22:16;8.30;99.90
56162;DHT22;42045;52.986;6.014;2023-05-29T04:24:42;8.50;99.90
56162;DHT22;42045;52.986;6.014;2023-05-29T04:27:08;8.70;99.90
56162;DHT22;42045;52.986;6.014;2023-05-29T04:29:34;8.80;99.90
56162;DHT22;42045;52.986;6.014;2023-05-29T04:32:00;8.80;99.90
56162;DHT22;42045;52.986;6.014;2023-05-29T04:34:29;8.90;99.90
56162;DHT22;42045;52.986;6.014;2023-05-29T04:36:56;8.90;99.90
56162;DHT22;42045;52.986;6.014;2023-05-29T04:39:24;9.00;99.90
56162;DHT22;42045;52.986;6.014;2023-05-29T04:41:50;9.10;99.90
56162;DHT22;42045;52.986;6.014;2023-05-29T04:44:17;9.30;99.90
56162;DHT22;42045;52.986;6.014;2023-05-29T04:46:43;9.60;99.90
56162;DHT22;42045;52.986;6.014;2023-05-29T04:49:10;9.80;99.90
56162;DHT22;42045;52.986;6.014;2023-05-29T04:51:35;9.90;99.90
56162;DHT22;42045;52.986;6.014;2023-05-29T04:54:02;10.00;99.90
56162;DHT22;42045;52.986;6.014;2023-05-29T04:56:28;10.20;99.90
56162;DHT22;42045;52.986;6.014;2023-05-29T04:58:54;10.30;99.90
56162;DHT22;42045;52.986;6.014;2023-05-29T05:01:19;10.50;99.90
56162;DHT22;42045;52.986;6.014;2023-05-29T05:03:45;10.60;99.90
56162;DHT22;42045;52.986;6.014;2023-05-29T05:06:11;10.70;99.90
56162;DHT22;42045;52.986;6.014;2023-05-29T05:08:38;10.80;99.90
56162;DHT22;42045;52.986;6.014;2023-05-29T05:11:04;11.30;99.90
56162;DHT22;42045;52.986;6.014;2023-05-29T05:13:31;11.90;99.90
56162;DHT22;42045;52.986;6.014;2023-05-29T05:15:57;11.90;99.90
56162;DHT22;42045;52.986;6.014;2023-05-29T05:18:23;11.80;99.90
56162;DHT22;42045;52.986;6.014;2023-05-29T05:20:48;11.80;99.90
56162;DHT22;42045;52.986;6.014;2023-05-29T05:23:14;11.60;99.90
56162;DHT22;42045;52.986;6.014;2023-05-29T05:25:40;11.80;99.90
56162;DHT22;42045;52.986;6.014;2023-05-29T05:28:05;12.30;99.90
56162;DHT22;42045;52.986;6.014;2023-05-29T05:30:31;13.20;99.90
56162;DHT22;42045;52.986;6.014;2023-05-29T05:32:57;14.10;99.90
56162;DHT22;42045;52.986;6.014;2023-05-29T05:35:24;15.00;99.90
56162;DHT22;42045;52.986;6.014;2023-05-29T05:37:49;15.90;99.90
56162;DHT22;42045;52.986;6.014;2023-05-29T05:40:16;16.40;99.90
56162;DHT22;42045;52.986;6.014;2023-05-29T05:42:41;16.30;99.90
56162;DHT22;42045;52.986;6.014;2023-05-29T05:45:07;16.40;99.90
56162;DHT22;42045;52.986;6.014;2023-05-29T05:47:33;16.40;99.90
56162;DHT22;42045;52.986;6.014;2023-05-29T05:49:59;16.50;99.90
56162;DHT22;42045;52.986;6.014;2023-05-29T05:52:25;16.00;99.90
56162;DHT22;42045;52.986;6.014;2023-05-29T05:54:56;16.10;99.90
56162;DHT22;42045;52.986;6.014;2023-05-29T05:57:22;15.60;99.90
56162;DHT22;42045;52.986;6.014;2023-05-29T05:59:48;16.00;99.90
56162;DHT22;42045;52.986;6.014;2023-05-29T06:02:13;16.50;99.90
56162;DHT22;42045;52.986;6.014;2023-05-29T06:04:40;16.90;99.90
56162;DHT22;42045;52.986;6.014;2023-05-29T06:07:06;16.80;99.90
56162;DHT22;42045;52.986;6.014;2023-05-29T06:09:32;16.60;99.90
56162;DHT22;42045;52.986;6.014;2023-05-29T06:11:58;16.40;99.90
56162;DHT22;42045;52.986;6.014;2023-05-29T06:14:24;16.10;99.90
56162;DHT22;42045;52.986;6.014;2023-05-29T06:16:50;16.30;99.90
56162;DHT22;42045;52.986;6.014;2023-05-29T06:19:16;16.10;99.90
56162;DHT22;42045;52.986;6.014;2023-05-29T06:21:42;16.10;99.90
56162;DHT22;42045;52.986;6.014;2023-05-29T06:24:07;16.30;99.90
56162;DHT22;42045;52.986;6.014;2023-05-29T06:26:33;15.90;99.90
56162;DHT22;42045;52.986;6.014;2023-05-29T06:28:59;16.00;99.90
56162;DHT22;42045;52.986;6.014;2023-05-29T06:31:25;16.70;99.90
56162;DHT22;42045;52.986;6.014;2023-05-29T06:33:50;17.10;99.90
56162;DHT22;42045;52.986;6.014;2023-05-29T06:36:16;17.20;99.90
56162;DHT22;42045;52.986;6.014;2023-05-29T06:38:46;17.60;99.90
56162;DHT22;42045;52.986;6.014;2023-05-29T06:41:13;17.50;99.90
56162;DHT22;42045;52.986;6.014;2023-05-29T06:43:38;17.70;99.90
56162;DHT22;42045;52.986;6.014;2023-05-29T06:46:04;17.40;99.90
56162;DHT22;42045;52.986;6.014;2023-05-29T06:48:33;17.30;99.90
56162;DHT22;42045;52.986;6.014;2023-05-29T06:50:59;17.40;99.90
56162;DHT22;42045;52.986;6.014;2023-05-29T06:53:25;17.50;99.90
56162;DHT22;42045;52.986;6.014;2023-05-29T06:55:52;17.40;99.90
56162;DHT22;42045;52.986;6.014;2023-05-29T06:58:17;17.50;99.90
56162;DHT22;42045;52.986;6.014;2023-05-29T07:00:43;17.40;99.90
56162;DHT22;42045;52.986;6.014;2023-05-29T07:03:08;17.50;99.90
56162;DHT22;42045;52.986;6.014;2023-05-29T07:05:34;17.50;99.90
56162;DHT22;42045;52.986;6.014;2023-05-29T07:08:00;17.20;99.90
56162;DHT22;42045;52.986;6.014;2023-05-29T07:10:25;17.00;99.90
56162;DHT22;42045;52.986;6.014;2023-05-29T07:12:51;16.90;99.90
56162;DHT22;42045;52.986;6.014;2023-05-29T07:15:17;16.90;99.90
56162;DHT22;42045;52.986;6.014;2023-05-29T07:17:42;16.30;99.90
56162;DHT22;42045;52.986;6.014;2023-05-29T07:20:08;16.00;99.90
56162;DHT22;42045;52.986;6.014;2023-05-29T07:22:34;15.60;99.90
56162;DHT22;42045;52.986;6.014;2023-05-29T07:25:01;15.80;99.90
56162;DHT22;42045;52.986;6.014;2023-05-29T07:27:27;15.60;99.90
56162;DHT22;42045;52.986;6.014;2023-05-29T07:29:53;15.50;99.90
56162;DHT22;42045;52.986;6.014;2023-05-29T07:32:19;15.50;99.90
56162;DHT22;42045;52.986;6.014;2023-05-29T07:34:44;15.30;99.90
56162;DHT22;42045;52.986;6.014;2023-05-29T07:37:11;15.50;99.90
56162;DHT22;42045;52.986;6.014;2023-05-29T07:39:37;15.50;99.90
56162;DHT22;42045;52.986;6.014;2023-05-29T07:42:02;15.40;99.90
56162;DHT22;42045;52.986;6.014;2023-05-29T07:44:28;15.40;99.90
56162;DHT22;42045;52.986;6.014;2023-05-29T07:46:55;15.60;99.90
56162;DHT22;42045;52.986;6.014;2023-05-29T07:49:21;15.90;99.90
56162;DHT22;42045;52.986;6.014;2023-05-29T07:51:46;15.50;99.90
56162;DHT22;42045;52.986;6.014;2023-05-29T07:54:12;15.10;99.90
56162;DHT22;42045;52.986;6.014;2023-05-29T07:56:38;15.00;99.90
56162;DHT22;42045;52.986;6.014;2023-05-29T07:59:04;15.00;99.90
56162;DHT22;42045;52.986;6.014;2023-05-29T08:01:31;15.10;99.90
56162;DHT22;42045;52.986;6.014;2023-05-29T08:03:56;15.10;99.90
56162;DHT22;42045;52.986;6.014;2023-05-29T08:06:22;15.00;99.90
56162;DHT22;42045;52.986;6.014;2023-05-29T08:08:48;15.40;99.90
56162;DHT22;42045;52.986;6.014;2023-05-29T08:11:15;15.90;99.90
56162;DHT22;42045;52.986;6.014;2023-05-29T08:13:40;16.00;99.90
56162;DHT22;42045;52.986;6.014;2023-05-29T08:16:06;16.30;99.90
56162;DHT22;42045;52.986;6.014;2023-05-29T08:18:32;16.50;99.90
56162;DHT22;42045;52.986;6.014;2023-05-29T08:20:58;16.80;99.90
56162;DHT22;42045;52.986;6.014;2023-05-29T08:23:24;16.60;99.90
56162;DHT22;42045;52.986;6.014;2023-05-29T08:25:50;16.00;99.90
56162;DHT22;42045;52.986;6.014;2023-05-29T08:28:16;15.80;99.90
56162;DHT22;42045;52.986;6.014;2023-05-29T08:30:42;15.90;99.90
56162;DHT22;42045;52.986;6.014;2023-05-29T08:33:07;16.00;99.90
56162;DHT22;42045;52.986;6.014;2023-05-29T08:35:33;15.60;99.90
56162;DHT22;42045;52.986;6.014;2023-05-29T08:38:00;15.70;99.90
56162;DHT22;42045;52.986;6.014;2023-05-29T08:40:25;16.10;99.90
56162;DHT22;42045;52.986;6.014;2023-05-29T08:42:57;16.40;99.90
56162;DHT22;42045;52.986;6.014;2023-05-29T08:45:24;16.60;99.90
56162;DHT22;42045;52.986;6.014;2023-05-29T08:47:53;16.80;99.90
56162;DHT22;42045;52.986;6.014;2023-05-29T08:50:20;16.80;99.90
56162;DHT22;42045;52.986;6.014;2023-05-29T08:52:46;16.80;99.90
56162;DHT22;42045;52.986;6.014;2023-05-29T08:55:13;16.20;99.90
56162;DHT22;42045;52.986;6.014;2023-05-29T08:57:39;16.30;99.90
56162;DHT22;42045;52.986;6.014;2023-05-29T09:00:06;16.30;99.90
56162;DHT22;42045;52.986;6.014;2023-05-29T09:02:43;16.20;99.90
56162;DHT22;42045;52.986;6.014;2023-05-29T09:05:10;16.10;99.90
56162;DHT22;42045;52.986;6.014;2023-05-29T09:07:36;16.00;99.90
56162;DHT22;42045;52.986;6.014;2023-05-29T09:10:05;16.00;99.90
56162;DHT22;42045;52.986;6.014;2023-05-29T09:12:32;16.00;99.90
56162;DHT22;42045;52.986;6.014;2023-05-29T09:14:58;16.00;99.90
56162;DHT22;42045;52.986;6.014;2023-05-29T09:17:24;16.00;99.90
56162;DHT22;42045;52.986;6.014;2023-05-29T09:19:50;15.90;99.90
56162;DHT22;42045;52.986;6.014;2023-05-29T09:22:15;15.80;99.90
56162;DHT22;42045;52.986;6.014;2023-05-29T09:24:43;15.50;99.90
56162;DHT22;42045;52.986;6.014;2023-05-29T09:27:11;15.50;99.90
56162;DHT22;42045;52.986;6.014;2023-05-29T09:29:41;15.60;99.90
56162;DHT22;42045;52.986;6.014;2023-05-29T09:32:09;15.20;99.90
56162;DHT22;42045;52.986;6.014;2023-05-29T09:34:35;14.90;99.90
56162;DHT22;42045;52.986;6.014;2023-05-29T09:37:08;14.90;99.90
56162;DHT22;42045;52.986;6.014;2023-05-29T09:39:47;14.90;99.90
56162;DHT22;42045;52.986;6.014;2023-05-29T09:42:15;14.70;99.90
56162;DHT22;42045;52.986;6.014;2023-05-29T09:44:42;14.90;99.90
56162;DHT22;42045;52.986;6.014;2023-05-29T09:47:08;15.20;99.90
56162;DHT22;42045;52.986;6.014;2023-05-29T09:49:34;15.30;99.90
56162;DHT22;42045;52.986;6.014;2023-05-29T09:52:05;15.30;99.90
56162;DHT22;42045;52.986;6.014;2023-05-29T09:54:35;15.50;99.90
56162;DHT22;42045;52.986;6.014;2023-05-29T09:57:03;15.50;99.90
56162;DHT22;42045;52.986;6.014;2023-05-29T09:59:30;15.60;99.90
56162;DHT22;42045;52.986;6.014;2023-05-29T10:02:03;15.80;99.90
56162;DHT22;42045;52.986;6.014;2023-05-29T10:04:30;15.80;99.90
56162;DHT22;42045;52.986;6.014;2023-05-29T10:07:02;15.80;99.90
56162;DHT22;42045;52.986;6.014;2023-05-29T10:09:29;15.90;99.90
56162;DHT22;42045;52.986;6.014;2023-05-29T10:11:58;16.20;99.90
56162;DHT22;42045;52.986;6.014;2023-05-29T10:14:25;16.40;99.90
56162;DHT22;42045;52.986;6.014;2023-05-29T10:16:54;16.60;99.90
56162;DHT22;42045;52.986;6.014;2023-05-29T10:19:26;16.70;99.90
56162;DHT22;42045;52.986;6.014;2023-05-29T10:21:53;16.70;99.90
56162;DHT22;42045;52.986;6.014;2023-05-29T10:24:21;16.60;99.90
56162;DHT22;42045;52.986;6.014;2023-05-29T10:26:49;16.90;99.90
56162;DHT22;42045;52.986;6.014;2023-05-29T10:32:15;16.90;99.90
56162;DHT22;42045;52.986;6.014;2023-05-29T10:37:33;16.50;99.90
56162;DHT22;42045;52.986;6.014;2023-05-29T10:40:08;16.00;99.90
56162;DHT22;42045;52.986;6.014;2023-05-29T10:42:46;15.90;99.90
56162;DHT22;42045;52.986;6.014;2023-05-29T10:50:36;16.50;99.90
56162;DHT22;42045;52.986;6.014;2023-05-29T10:53:06;16.60;99.90
56162;DHT22;42045;52.986;6.014;2023-05-29T10:55:38;16.90;99.90
56162;DHT22;42045;52.986;6.014;2023-05-29T10:58:09;16.60;99.90
56162;DHT22;42045;52.986;6.014;2023-05-29T11:00:45;16.80;99.90
56162;DHT22;42045;52.986;6.014;2023-05-29T11:03:15;16.60;99.90
56162;DHT22;42045;52.986;6.014;2023-05-29T11:08:53;16.40;99.90
56162;DHT22;42045;52.986;6.014;2023-05-29T11:13:55;16.30;99.90
56162;DHT22;42045;52.986;6.014;2023-05-29T11:18:51;16.70;99.90
56162;DHT22;42045;52.986;6.014;2023-05-29T11:24:07;16.80;99.90
56162;DHT22;42045;52.986;6.014;2023-05-29T11:26:34;17.00;99.90
56162;DHT22;42045;52.986;6.014;2023-05-29T11:29:02;16.90;99.90
56162;DHT22;42045;52.986;6.014;2023-05-29T11:31:31;17.20;99.90
56162;DHT22;42045;52.986;6.014;2023-05-29T11:34:02;17.30;99.90
56162;DHT22;42045;52.986;6.014;2023-05-29T11:36:31;16.90;99.90
56162;DHT22;42045;52.986;6.014;2023-05-29T11:38:58;17.10;99.90
56162;DHT22;42045;52.986;6.014;2023-05-29T11:41:24;17.30;99.90
56162;DHT22;42045;52.986;6.014;2023-05-29T11:44:00;17.50;99.90
56162;DHT22;42045;52.986;6.014;2023-05-29T11:46:31;17.00;99.90
56162;DHT22;42045;52.986;6.014;2023-05-29T11:48:58;17.20;99.90
56162;DHT22;42045;52.986;6.014;2023-05-29T11:51:25;17.30;99.90
56162;DHT22;42045;52.986;6.014;2023-05-29T11:53:51;17.30;99.90
56162;DHT22;42045;52.986;6.014;2023-05-29T11:56:23;17.10;99.90
56162;DHT22;42045;52.986;6.014;2023-05-29T11:58:49;17.20;99.90
56162;DHT22;42045;52.986;6.014;2023-05-29T12:01:17;17.30;99.90
56162;DHT22;42045;52.986;6.014;2023-05-29T12:03:44;17.50;99.90
56162;DHT22;42045;52.986;6.014;2023-05-29T12:06:10;17.40;99.90
56162;DHT22;42045;52.986;6.014;2023-05-29T12:08:37;17.20;99.90
56162;DHT22;42045;52.986;6.014;2023-05-29T12:11:03;16.90;99.90
56162;DHT22;42045;52.986;6.014;2023-05-29T12:13:29;17.00;99.90
56162;DHT22;42045;52.986;6.014;2023-05-29T12:15:57;17.20;99.90
56162;DHT22;42045;52.986;6.014;2023-05-29T12:18:25;17.30;99.90
56162;DHT22;42045;52.986;6.014;2023-05-29T12:20:57;17.40;99.90
56162;DHT22;42045;52.986;6.014;2023-05-29T12:23:23;17.40;99.90
56162;DHT22;42045;52.986;6.014;2023-05-29T12:25:51;17.60;99.90
56162;DHT22;42045;52.986;6.014;2023-05-29T12:28:18;17.20;99.90
56162;DHT22;42045;52.986;6.014;2023-05-29T12:30:46;17.30;99.90
56162;DHT22;42045;52.986;6.014;2023-05-29T12:33:32;17.20;99.90
56162;DHT22;42045;52.986;6.014;2023-05-29T12:36:03;17.40;99.90
56162;DHT22;42045;52.986;6.014;2023-05-29T12:38:29;17.20;99.90
56162;DHT22;42045;52.986;6.014;2023-05-29T12:40:55;17.20;99.90
56162;DHT22;42045;52.986;6.014;2023-05-29T12:43:22;17.10;99.90
56162;DHT22;42045;52.986;6.014;2023-05-29T12:45:54;17.10;99.90
56162;DHT22;42045;52.986;6.014;2023-05-29T12:48:20;17.30;99.90
56162;DHT22;42045;52.986;6.014;2023-05-29T12:50:49;17.30;99.90
56162;DHT22;42045;52.986;6.014;2023-05-29T12:53:15;17.20;99.90
56162;DHT22;42045;52.986;6.014;2023-05-29T12:55:44;17.30;99.90
56162;DHT22;42045;52.986;6.014;2023-05-29T12:58:15;17.30;99.90
56162;DHT22;42045;52.986;6.014;2023-05-29T13:00:45;17.30;99.90
56162;DHT22;42045;52.986;6.014;2023-05-29T13:03:11;17.10;99.90
56162;DHT22;42045;52.986;6.014;2023-05-29T13:05:37;17.20;99.90
56162;DHT22;42045;52.986;6.014;2023-05-29T13:08:03;17.10;99.90
56162;DHT22;42045;52.986;6.014;2023-05-29T13:10:31;17.10;99.90
56162;DHT22;42045;52.986;6.014;2023-05-29T13:12:57;17.00;99.90
56162;DHT22;42045;52.986;6.014;2023-05-29T13:15:25;16.70;99.90
56162;DHT22;42045;52.986;6.014;2023-05-29T13:17:52;16.60;99.90
56162;DHT22;42045;52.986;6.014;2023-05-29T13:20:19;16.80;99.90
56162;DHT22;42045;52.986;6.014;2023-05-29T13:22:46;17.00;99.90
56162;DHT22;42045;52.986;6.014;2023-05-29T13:25:14;16.70;99.90
56162;DHT22;42045;52.986;6.014;2023-05-29T13:27:42;16.70;99.90
56162;DHT22;42045;52.986;6.014;2023-05-29T13:30:08;16.50;99.90
56162;DHT22;42045;52.986;6.014;2023-05-29T13:32:34;16.60;99.90
56162;DHT22;42045;52.986;6.014;2023-05-29T13:35:00;16.60;99.90
56162;DHT22;42045;52.986;6.014;2023-05-29T13:37:26;16.50;99.90
56162;DHT22;42045;52.986;6.014;2023-05-29T13:39:53;16.70;99.90
56162;DHT22;42045;52.986;6.014;2023-05-29T13:42:19;16.60;99.90
56162;DHT22;42045;52.986;6.014;2023-05-29T13:44:46;16.70;99.90
56162;DHT22;42045;52.986;6.014;2023-05-29T13:47:12;16.60;99.90
56162;DHT22;42045;52.986;6.014;2023-05-29T13:49:37;16.40;99.90
56162;DHT22;42045;52.986;6.014;2023-05-29T13:52:04;16.40;99.90
56162;DHT22;42045;52.986;6.014;2023-05-29T13:54:30;16.40;99.90
56162;DHT22;42045;52.986;6.014;2023-05-29T13:56:57;16.70;99.90
56162;DHT22;42045;52.986;6.014;2023-05-29T13:59:24;16.60;99.90
56162;DHT22;42045;52.986;6.014;2023-05-29T14:01:50;16.50;99.90
56162;DHT22;42045;52.986;6.014;2023-05-29T14:04:16;16.30;99.90
56162;DHT22;42045;52.986;6.014;2023-05-29T14:06:41;16.30;99.90
56162;DHT22;42045;52.986;6.014;2023-05-29T14:09:07;16.10;99.90
56162;DHT22;42045;52.986;6.014;2023-05-29T14:11:36;16.20;99.90
56162;DHT22;42045;52.986;6.014;2023-05-29T14:14:05;16.20;99.90
56162;DHT22;42045;52.986;6.014;2023-05-29T14:16:32;16.30;99.90
56162;DHT22;42045;52.986;6.014;2023-05-29T14:18:58;16.40;99.90
56162;DHT22;42045;52.986;6.014;2023-05-29T14:21:24;16.40;99.90
56162;DHT22;42045;52.986;6.014;2023-05-29T14:23:50;16.40;99.90
56162;DHT22;42045;52.986;6.014;2023-05-29T14:26:16;16.40;99.90
56162;DHT22;42045;52.986;6.014;2023-05-29T14:28:41;16.40;99.90
56162;DHT22;42045;52.986;6.014;2023-05-29T14:31:07;16.40;99.90
56162;DHT22;42045;52.986;6.014;2023-05-29T14:33:33;16.40;99.90
56162;DHT22;42045;52.986;6.014;2023-05-29T14:35:59;16.40;99.90
56162;DHT22;42045;52.986;6.014;2023-05-29T14:38:25;16.50;99.90
56162;DHT22;42045;52.986;6.014;2023-05-29T14:40:51;16.50;99.90
56162;DHT22;42045;52.986;6.014;2023-05-29T14:43:17;16.50;99.90
56162;DHT22;42045;52.986;6.014;2023-05-29T14:45:43;16.40;99.90
56162;DHT22;42045;52.986;6.014;2023-05-29T14:48:08;16.50;99.90
56162;DHT22;42045;52.986;6.014;2023-05-29T14:50:35;16.40;99.90
56162;DHT22;42045;52.986;6.014;2023-05-29T14:53:01;16.30;99.90
56162;DHT22;42045;52.986;6.014;2023-05-29T14:55:26;16.20;99.90
56162;DHT22;42045;52.986;6.014;2023-05-29T14:57:52;16.20;99.90
56162;DHT22;42045;52.986;6.014;2023-05-29T15:00:18;16.20;99.90
56162;DHT22;42045;52.986;6.014;2023-05-29T15:02:44;16.30;99.90
56162;DHT22;42045;52.986;6.014;2023-05-29T15:05:10;16.40;99.90
56162;DHT22;42045;52.986;6.014;2023-05-29T15:07:35;16.30;99.90
56162;DHT22;42045;52.986;6.014;2023-05-29T15:10:02;16.10;99.90
56162;DHT22;42045;52.986;6.014;2023-05-29T15:12:29;15.90;99.00
56162;DHT22;42045;52.986;6.014;2023-05-29T15:14:55;16.00;99.90
56162;DHT22;42045;52.986;6.014;2023-05-29T15:17:21;16.10;99.20
56162;DHT22;42045;52.986;6.014;2023-05-29T15:19:46;16.00;99.40
56162;DHT22;42045;52.986;6.014;2023-05-29T15:22:12;16.10;99.40
56162;DHT22;42045;52.986;6.014;2023-05-29T15:24:38;16.10;99.90
56162;DHT22;42045;52.986;6.014;2023-05-29T15:27:04;16.10;99.90
56162;DHT22;42045;52.986;6.014;2023-05-29T15:29:33;16.10;99.90
56162;DHT22;42045;52.986;6.014;2023-05-29T15:32:00;16.00;99.20
56162;DHT22;42045;52.986;6.014;2023-05-29T15:34:26;16.00;99.50
56162;DHT22;42045;52.986;6.014;2023-05-29T15:36:52;16.00;99.70
56162;DHT22;42045;52.986;6.014;2023-05-29T15:39:18;16.00;98.40
56162;DHT22;42045;52.986;6.014;2023-05-29T15:41:44;16.10;99.60
56162;DHT22;42045;52.986;6.014;2023-05-29T15:44:10;16.10;99.90
56162;DHT22;42045;52.986;6.014;2023-05-29T15:46:35;15.80;99.90
56162;DHT22;42045;52.986;6.014;2023-05-29T15:49:01;15.70;99.30
56162;DHT22;42045;52.986;6.014;2023-05-29T15:51:27;15.80;99.90
56162;DHT22;42045;52.986;6.014;2023-05-29T15:53:53;15.80;99.90
56162;DHT22;42045;52.986;6.014;2023-05-29T15:56:19;15.70;99.90
56162;DHT22;42045;52.986;6.014;2023-05-29T15:58:50;15.40;99.90
56162;DHT22;42045;52.986;6.014;2023-05-29T16:01:16;15.50;99.90
56162;DHT22;42045;52.986;6.014;2023-05-29T16:03:41;15.50;99.90
56162;DHT22;42045;52.986;6.014;2023-05-29T16:06:07;15.50;99.90